Time;durP1;ratioP1;P1;durP2;ratioP2;P2;SDS_P1;SDS_P2;PMS_P1;PMS_P2;Temp;Humidity;BMP_temperature;BMP_pressure;BME280_temperature;BME280_humidity;BME280_pressure;Samples;Min_cycle;Max_cycle;Signal;HPM_P1;HPM_P2
2022/11/20 00:01:21;;;;;;;41.58;24.67;;;;;;;-0.66;100.00;100938.41;5034259;28;20049;-74
2022/11/20 00:03:48;;;;;;;35.90;20.10;;;;;;;-0.69;100.00;100935.50;5035203;28;20072;-74
2022/11/20 00:06:18;;;;;;;34.25;20.40;;;;;;;-0.68;100.00;100937.91;5039721;28;20156;-73
2022/11/20 00:08:45;;;;;;;48.08;27.67;;;;;;;-0.68;100.00;100931.66;5035589;28;20045;-73
2022/11/20 00:11:15;;;;;;;39.63;21.08;;;;;;;-0.68;100.00;100920.78;5037790;28;20053;-74
2022/11/20 00:13:47;;;;;;;42.63;24.13;;;;;;;-0.67;100.00;100927.84;5035380;28;20986;-76
2022/11/20 00:16:15;;;;;;;44.85;26.33;;;;;;;-0.68;100.00;100927.03;5037238;28;20056;-75
2022/11/20 00:18:45;;;;;;;54.33;32.03;;;;;;;-0.77;100.00;100911.84;5033885;28;20064;-71
2022/11/20 00:21:17;;;;;;;46.83;25.83;;;;;;;-0.72;100.00;100919.84;5033687;28;20127;-73
2022/11/20 00:23:44;;;;;;;41.58;23.20;;;;;;;-0.73;100.00;100912.81;5034403;28;20075;-73
2022/11/20 00:26:14;;;;;;;33.90;17.50;;;;;;;-0.70;100.00;100915.72;5030279;28;20238;-75
2022/11/20 00:28:42;;;;;;;36.33;19.88;;;;;;;-0.81;100.00;100906.22;5026357;28;20138;-75
2022/11/20 00:31:14;;;;;;;37.85;21.83;;;;;;;-0.77;100.00;100915.34;5030312;28;20402;-75
2022/11/20 00:33:43;;;;;;;48.15;26.17;;;;;;;-0.82;100.00;100907.38;5033784;28;20045;-75
2022/11/20 00:36:12;;;;;;;39.45;21.38;;;;;;;-0.89;100.00;100909.75;5035102;28;20056;-74
2022/11/20 00:38:38;;;;;;;38.92;21.25;;;;;;;-0.91;100.00;100914.69;5033442;28;20049;-75
2022/11/20 00:41:08;;;;;;;32.85;18.08;;;;;;;-0.90;100.00;100915.50;5032732;28;20753;-75
2022/11/20 00:43:35;;;;;;;35.65;17.90;;;;;;;-0.92;100.00;100909.56;5032714;28;20132;-74
2022/11/20 00:46:05;;;;;;;34.63;17.40;;;;;;;-0.96;100.00;100917.56;5029129;28;20049;-74
2022/11/20 00:48:32;;;;;;;33.95;19.33;;;;;;;-1.00;100.00;100907.63;5038306;28;20052;-74
2022/11/20 00:50:59;;;;;;;49.40;24.17;;;;;;;-1.02;100.00;100899.81;5032992;28;20812;-74
2022/11/20 00:53:26;;;;;;;44.55;21.85;;;;;;;-1.04;100.00;100910.16;5034448;28;20662;-74
2022/11/20 00:55:54;;;;;;;39.75;21.73;;;;;;;-1.09;100.00;100913.06;5033690;28;20499;-74
2022/11/20 00:58:22;;;;;;;39.28;19.77;;;;;;;-1.06;100.00;100911.59;5041607;28;20047;-72
2022/11/20 01:00:49;;;;;;;39.58;19.88;;;;;;;-1.03;100.00;100909.06;5034239;28;20041;-73
2022/11/20 01:03:18;;;;;;;42.40;22.77;;;;;;;-1.07;100.00;100908.13;5039643;28;20128;-73
2022/11/20 01:05:51;;;;;;;40.58;20.20;;;;;;;-1.04;100.00;100909.41;5031996;28;20052;-73
2022/11/20 01:08:17;;;;;;;42.75;22.58;;;;;;;-1.02;100.00;100915.28;5035186;28;20051;-74
2022/11/20 01:10:44;;;;;;;46.97;28.15;;;;;;;-1.03;100.00;100911.78;5039890;28;20094;-74
2022/11/20 01:16:01;;;;;;;39.75;20.90;;;;;;;-1.00;100.00;100913.88;5036008;28;20061;-74
2022/11/20 01:18:27;;;;;;;36.25;19.83;;;;;;;-1.02;100.00;100905.25;5035362;28;20159;-73
2022/11/20 01:20:54;;;;;;;33.60;19.10;;;;;;;-1.03;100.00;100903.66;5033808;28;20065;-75
2022/11/20 01:23:20;;;;;;;39.20;21.33;;;;;;;-1.11;100.00;100901.69;5034058;28;20243;-74
2022/11/20 01:25:47;;;;;;;38.38;19.52;;;;;;;-1.17;100.00;100902.97;5033749;28;20061;-74
2022/11/20 01:28:13;;;;;;;39.20;20.80;;;;;;;-1.18;100.00;100895.13;5032003;28;20056;-74
2022/11/20 01:30:40;;;;;;;36.10;19.65;;;;;;;-1.18;100.00;100897.84;5032630;28;20059;-75
2022/11/20 01:33:07;;;;;;;36.25;19.10;;;;;;;-1.28;100.00;100884.56;5031508;28;20057;-74
2022/11/20 01:35:33;;;;;;;37.92;19.27;;;;;;;-1.28;100.00;100884.56;5035913;28;20117;-74
2022/11/20 01:37:59;;;;;;;38.45;19.83;;;;;;;-1.29;100.00;100864.75;5034465;28;20056;-75
2022/11/20 01:40:26;;;;;;;38.47;20.27;;;;;;;-1.25;100.00;100882.00;5033503;28;20056;-73
2022/11/20 01:43:23;;;;;;;36.38;20.25;;;;;;;-1.23;100.00;100873.56;5034035;28;20052;-74
2022/11/20 01:46:16;;;;;;;37.67;19.95;;;;;;;-1.28;100.00;100873.72;5021165;28;20079;-74
2022/11/20 01:48:47;;;;;;;37.13;20.45;;;;;;;-1.28;100.00;100874.47;5013125;28;20054;-75
2022/11/20 01:51:22;;;;;;;40.40;20.38;;;;;;;-1.26;100.00;100869.56;5011745;28;20053;-74
2022/11/20 01:53:50;;;;;;;;;;;;;;;-1.23;100.00;100868.94;5032772;28;20065;-72
2022/11/20 01:56:17;;;;;;;39.70;20.55;;;;;;;-1.22;100.00;100869.75;5031528;28;19931;-73
2022/11/20 01:58:50;;;;;;;42.70;20.30;;;;;;;-1.23;100.00;100868.94;5038671;28;20075;-73
2022/11/20 02:01:17;;;;;;;39.13;20.42;;;;;;;-1.22;100.00;100873.22;5031492;28;20049;-73
2022/11/20 02:03:44;;;;;;;40.95;22.33;;;;;;;-1.23;100.00;100882.50;5039165;28;20429;-74
2022/11/20 02:06:24;;;;;;;36.33;20.33;;;;;;;-1.28;100.00;100879.13;5025313;28;20056;-73
2022/11/20 02:08:52;;;;;;;45.03;23.45;;;;;;;-1.27;100.00;100878.00;5020312;28;20061;-73
2022/11/20 02:11:18;;;;;;;40.25;21.90;;;;;;;-1.31;100.00;100877.03;5019408;28;20880;-73
2022/11/20 02:13:46;;;;;;;43.50;21.20;;;;;;;-1.32;100.00;100878.16;5038139;28;20048;-74
2022/11/20 02:16:17;;;;;;;40.22;21.17;;;;;;;-1.29;100.00;100872.91;5037291;28;20064;-75
2022/11/20 02:18:45;;;;;;;37.45;19.55;;;;;;;-1.32;100.00;100861.88;5026195;28;20046;-74
2022/11/20 02:21:20;;;;;;;36.78;20.42;;;;;;;-1.34;100.00;100864.09;5038274;28;20102;-73
2022/11/20 02:24:18;;;;;;;38.90;20.45;;;;;;;-1.48;100.00;100837.06;5030989;28;20061;-73
2022/11/20 02:26:59;;;;;;;34.30;18.50;;;;;;;-1.38;100.00;100850.34;5037604;28;20048;-74
2022/11/20 02:29:30;;;;;;;39.22;19.95;;;;;;;-1.41;100.00;100847.47;5047774;28;20486;-73
2022/11/20 02:31:58;;;;;;;43.67;24.83;;;;;;;-1.40;100.00;100855.31;5049650;28;20413;-73
2022/11/20 02:34:25;;;;;;;43.63;23.63;;;;;;;-1.40;100.00;100859.91;5050117;28;20049;-74
2022/11/20 02:36:52;;;;;;;47.80;22.15;;;;;;;-1.40;100.00;100859.91;5049597;28;20084;-73
2022/11/20 02:39:20;;;;;;;39.13;22.25;;;;;;;-1.41;100.00;100845.56;5047658;28;20052;-74
2022/11/20 02:41:47;;;;;;;43.25;24.63;;;;;;;-1.42;100.00;100851.31;5047275;28;20068;-73
2022/11/20 02:44:14;;;;;;;42.30;23.00;;;;;;;-1.46;100.00;100842.97;5049682;28;20049;-73
2022/11/20 02:46:40;;;;;;;49.58;26.17;;;;;;;-1.46;100.00;100844.88;5049773;28;20418;-74
2022/11/20 02:49:07;;;;;;;52.35;26.98;;;;;;;-1.51;100.00;100845.03;5045962;28;20128;-73
2022/11/20 02:51:33;;;;;;;49.10;25.48;;;;;;;-1.53;100.00;100848.06;5048870;28;20052;-73
2022/11/20 02:54:00;;;;;;;41.25;21.23;;;;;;;-1.54;100.00;100829.38;5047632;28;20402;-72
2022/11/20 02:56:27;;;;;;;41.95;23.35;;;;;;;-1.58;100.00;100836.56;5048181;28;20056;-70
2022/11/20 02:58:53;;;;;;;41.22;22.75;;;;;;;-1.58;100.00;100842.00;5048600;28;20528;-73
2022/11/20 03:01:19;;;;;;;43.55;23.75;;;;;;;-1.62;100.00;100843.72;5047935;28;20045;-73
2022/11/20 03:03:48;;;;;;;44.60;22.25;;;;;;;-1.64;100.00;100841.34;5048760;28;20057;-72
2022/11/20 03:06:16;;;;;;;41.30;21.25;;;;;;;-1.72;100.00;100825.78;5062213;28;20132;-72
2022/11/20 03:08:43;;;;;;;41.75;22.45;;;;;;;-1.66;100.00;100840.06;5054759;28;20123;-73
2022/11/20 03:11:09;;;;;;;45.17;23.92;;;;;;;-1.65;100.00;100844.34;5049232;28;20060;-74
2022/11/20 03:13:36;;;;;;;42.30;21.52;;;;;;;-1.64;100.00;100845.94;5052179;28;20052;-73
2022/11/20 03:16:14;;;;;;;41.40;23.23;;;;;;;-1.68;100.00;100826.00;5055017;28;20057;-73
2022/11/20 03:18:41;;;;;;;38.30;20.92;;;;;;;-1.64;100.00;100832.38;5042532;28;20485;-73
2022/11/20 03:21:10;;;;;;;40.22;19.17;;;;;;;-1.61;100.00;100840.72;5029868;28;20064;-74
2022/11/20 03:23:38;;;;;;;36.85;18.92;;;;;;;-1.61;100.00;100838.00;5044521;28;20191;-73
2022/11/20 03:26:19;;;;;;;35.95;18.08;;;;;;;-1.64;100.00;100827.75;5054856;28;20044;-74
2022/11/20 03:28:50;;;;;;;36.85;19.73;;;;;;;-1.69;100.00;100827.88;5061319;28;20044;-73
2022/11/20 03:31:19;;;;;;;36.47;18.60;;;;;;;-1.70;100.00;100831.72;5046541;28;20071;-73
2022/11/20 03:33:46;;;;;;;39.10;19.30;;;;;;;-1.70;100.00;100825.50;5053960;28;20055;-73
2022/11/20 03:36:14;;;;;;;36.17;19.27;;;;;;;-1.71;100.00;100822.00;5057605;28;20052;-73
2022/11/20 03:38:41;;;;;;;35.35;18.15;;;;;;;-1.75;100.00;100823.75;5050394;28;20651;-72
2022/11/20 03:41:13;;;;;;;36.05;19.02;;;;;;;-1.72;100.00;100825.03;5049275;28;20057;-74
2022/11/20 03:43:40;;;;;;;35.47;19.33;;;;;;;-1.80;100.00;100831.19;5045474;28;20049;-72
2022/11/20 03:46:07;;;;;;;34.95;17.90;;;;;;;-1.79;100.00;100828.16;5040642;28;20059;-74
2022/11/20 03:48:34;;;;;;;37.45;17.88;;;;;;;-1.84;100.00;100809.31;5053566;28;20067;-74
2022/11/20 03:51:24;;;;;;;35.72;18.02;;;;;;;-1.80;100.00;100817.63;5043847;28;20119;-73
2022/11/20 03:53:52;;;;;;;35.83;18.63;;;;;;;-1.80;100.00;100813.00;5049511;28;20045;-73
2022/11/20 03:56:22;;;;;;;36.95;19.05;;;;;;;-1.81;100.00;100814.13;5045929;28;20064;-73
2022/11/20 03:58:49;;;;;;;38.67;20.10;;;;;;;-1.80;100.00;100813.00;5050121;28;20049;-73
2022/11/20 04:01:18;;;;;;;39.00;19.55;;;;;;;-1.77;100.00;100804.25;5047067;28;20045;-73
2022/11/20 04:03:46;;;;;;;38.53;18.95;;;;;;;-1.77;100.00;100806.16;5048696;28;20076;-73
2022/11/20 04:06:21;;;;;;;38.03;19.63;;;;;;;-1.83;100.00;100789.22;5048529;28;20533;-75
2022/11/20 04:08:48;;;;;;;39.53;21.45;;;;;;;-1.75;100.00;100796.63;5047465;28;20441;-74
2022/11/20 04:11:19;;;;;;;39.95;20.55;;;;;;;-1.79;100.00;100795.63;5050759;28;20045;-74
2022/11/20 04:13:48;;;;;;;36.10;20.10;;;;;;;-1.97;100.00;100795.84;5050298;28;20056;-75
2022/11/20 04:16:15;;;;;;;39.67;20.65;;;;;;;-1.92;100.00;100795.72;5048219;28;20060;-71
2022/11/20 04:18:43;;;;;;;39.53;19.73;;;;;;;-1.84;100.00;100795.78;5048455;28;20048;-74
2022/11/20 04:21:09;;;;;;;40.53;21.63;;;;;;;-1.76;100.00;100788.78;5052284;28;20048;-73
2022/11/20 04:23:36;;;;;;;40.45;19.85;;;;;;;-1.78;100.00;100786.38;5052027;28;20502;-73
2022/11/20 04:26:08;;;;;;;39.55;21.67;;;;;;;-1.77;100.00;100801.53;5049131;28;20048;-75
2022/11/20 04:28:36;;;;;;;39.50;21.20;;;;;;;-1.72;100.00;100801.38;5039725;28;20521;-74
2022/11/20 04:31:08;;;;;;;49.15;26.98;;;;;;;-1.67;100.00;100806.69;5046986;28;20060;-73
2022/11/20 04:33:36;;;;;;;39.40;21.40;;;;;;;-1.65;100.00;100800.94;5047604;28;20128;-70
2022/11/20 04:36:12;;;;;;;41.92;21.65;;;;;;;-1.69;100.00;100798.06;5047425;28;20071;-73
2022/11/20 04:38:39;;;;;;;45.00;23.83;;;;;;;-1.73;100.00;100797.09;5040403;28;20055;-73
2022/11/20 04:41:09;;;;;;;42.65;22.58;;;;;;;-1.66;100.00;100796.66;5052642;28;20135;-73
2022/11/20 04:43:36;;;;;;;43.25;23.27;;;;;;;-1.57;100.00;100805.59;5054514;28;20052;-74
2022/11/20 04:46:02;;;;;;;40.95;23.27;;;;;;;-1.46;100.00;100809.59;5060286;28;20053;-74
2022/11/20 04:48:29;;;;;;;43.53;22.90;;;;;;;-1.35;100.00;100802.78;5058164;28;20049;-72
2022/11/20 04:50:56;;;;;;;38.25;21.30;;;;;;;-1.30;100.00;100811.59;5053905;28;20056;-72
2022/11/20 04:53:23;;;;;;;41.25;20.98;;;;;;;-1.25;100.00;100792.41;5059752;28;20787;-73
2022/11/20 04:55:49;;;;;;;42.38;22.88;;;;;;;-1.16;100.00;100801.38;5056065;28;20060;-73
2022/11/20 04:58:16;;;;;;;52.05;25.17;;;;;;;-1.09;100.00;100796.28;5056877;28;20049;-72
2022/11/20 05:00:43;;;;;;;44.47;23.75;;;;;;;-1.09;100.00;100792.75;5048490;28;20055;-72
2022/11/20 05:03:09;;;;;;;47.15;23.20;;;;;;;-1.05;100.00;100793.75;5047615;28;20049;-73
2022/11/20 05:05:36;;;;;;;45.13;23.83;;;;;;;-1.00;100.00;100801.72;5048519;28;20727;-73
2022/11/20 05:08:03;;;;;;;43.70;23.50;;;;;;;-0.99;100.00;100801.41;5052503;28;20133;-73
2022/11/20 05:10:29;;;;;;;43.10;23.20;;;;;;;-0.99;100.00;100806.84;5048630;28;20048;-73
2022/11/20 05:12:57;;;;;;;41.00;22.85;;;;;;;-0.96;100.00;100797.25;5049513;28;20053;-73
2022/11/20 05:15:23;;;;;;;38.95;21.48;;;;;;;-0.89;100.00;100803.00;5051086;28;20080;-72
2022/11/20 05:17:51;;;;;;;42.20;22.40;;;;;;;-0.83;100.00;100799.81;5050742;28;20048;-73
2022/11/20 05:20:19;;;;;;;40.97;22.13;;;;;;;-0.82;100.00;100792.44;5055146;28;20855;-72
2022/11/20 05:22:45;;;;;;;39.10;20.05;;;;;;;-0.78;100.00;100801.56;5054913;28;20048;-72
2022/11/20 05:25:12;;;;;;;41.72;22.00;;;;;;;-0.76;100.00;100797.44;5049347;28;20064;-73
2022/11/20 05:27:39;;;;;;;41.38;22.23;;;;;;;-0.75;100.00;100795.50;5055378;28;20682;-73
2022/11/20 05:30:06;;;;;;;40.45;21.77;;;;;;;-0.71;100.00;100802.69;5049126;28;20057;-72
2022/11/20 05:32:32;;;;;;;40.25;22.45;;;;;;;-0.66;100.00;100791.66;5047265;28;20048;-71
2022/11/20 05:34:59;;;;;;;40.55;21.30;;;;;;;-0.62;100.00;100802.69;5061807;28;20061;-74
2022/11/20 05:37:25;;;;;;;39.65;21.50;;;;;;;-0.62;100.00;100800.78;5051697;28;20051;-74
2022/11/20 05:39:52;;;;;;;41.97;21.95;;;;;;;-0.62;100.00;100789.91;5044849;28;20057;-73
2022/11/20 05:42:30;;;;;;;38.92;19.63;;;;;;;-0.59;100.00;100796.59;5040957;28;20052;-74
2022/11/20 05:44:58;;;;;;;47.28;24.45;;;;;;;-0.57;100.00;100792.44;5054173;28;20057;-73
2022/11/20 05:47:25;;;;;;;51.90;26.48;;;;;;;-0.56;100.00;100795.97;5054656;28;20056;-74
2022/11/20 05:49:52;;;;;;;42.45;22.90;;;;;;;-0.62;100.00;100786.38;5046421;28;20049;-74
2022/11/20 05:52:19;;;;;;;47.30;23.27;;;;;;;-0.68;100.00;100793.09;5052241;28;20053;-74
2022/11/20 05:54:45;;;;;;;40.95;22.95;;;;;;;-0.68;100.00;100796.63;5059429;28;20418;-73
2022/11/20 05:57:12;;;;;;;41.45;23.17;;;;;;;-0.68;100.00;100785.75;5056806;28;20049;-72
2022/11/20 05:59:38;;;;;;;46.10;23.00;;;;;;;-0.65;100.00;100781.59;5041898;28;20049;-74
2022/11/20 06:02:05;;;;;;;43.70;23.55;;;;;;;-0.64;100.00;100786.69;5057813;28;20044;-74
2022/11/20 06:04:31;;;;;;;42.00;23.48;;;;;;;-0.62;100.00;100780.94;5055648;28;20053;-73
2022/11/20 06:06:58;;;;;;;44.45;22.02;;;;;;;-0.67;100.00;100783.84;5049342;28;20919;-74
2022/11/20 06:09:24;;;;;;;42.72;22.67;;;;;;;-0.72;100.00;100794.84;5053149;28;20048;-74
2022/11/20 06:11:51;;;;;;;42.35;21.92;;;;;;;-0.70;100.00;100788.00;5049188;28;20052;-74
2022/11/20 06:14:17;;;;;;;42.15;21.50;;;;;;;-0.66;100.00;100786.25;5053629;28;20072;-74
2022/11/20 06:16:44;;;;;;;39.47;21.15;;;;;;;-0.63;100.00;100785.59;5058079;28;20045;-73
2022/11/20 06:19:10;;;;;;;48.65;25.25;;;;;;;-0.64;100.00;100789.41;5051415;28;20056;-72
2022/11/20 06:21:37;;;;;;;42.35;22.55;;;;;;;-0.64;100.00;100783.97;5054830;28;20067;-73
2022/11/20 06:24:03;;;;;;;41.40;23.42;;;;;;;-0.64;100.00;100780.47;5052518;28;20052;-73
2022/11/20 06:26:30;;;;;;;45.28;23.52;;;;;;;-0.65;100.00;100787.00;5048153;28;20502;-72
2022/11/20 06:28:57;;;;;;;45.47;24.90;;;;;;;-0.63;100.00;100788.31;5051642;28;20465;-73
2022/11/20 06:31:24;;;;;;;40.85;22.35;;;;;;;-0.64;100.00;100780.47;5048139;28;20536;-73
2022/11/20 06:33:52;;;;;;;38.88;21.35;;;;;;;-0.67;100.00;100789.28;5059218;28;20053;-72
2022/11/20 06:36:21;;;;;;;44.70;21.48;;;;;;;-0.75;100.00;100787.34;5050159;28;20059;-74
2022/11/20 06:38:48;;;;;;;42.58;22.52;;;;;;;-0.79;100.00;100794.53;5047907;28;20389;-73
2022/11/20 06:41:18;;;;;;;46.92;24.33;;;;;;;-0.81;100.00;100786.69;5046184;28;20045;-73
2022/11/20 06:43:45;;;;;;;44.08;23.38;;;;;;;-0.87;100.00;100787.97;5047840;28;20417;-72
2022/11/20 06:46:14;;;;;;;44.35;22.10;;;;;;;-0.86;100.00;100800.47;5047849;28;20049;-72
2022/11/20 06:48:40;;;;;;;43.13;22.17;;;;;;;-0.91;100.00;100795.16;5051727;28;20048;-75
2022/11/20 06:51:07;;;;;;;40.67;21.08;;;;;;;-1.01;100.00;100792.78;5054012;28;20576;-73
2022/11/20 06:53:34;;;;;;;43.25;22.48;;;;;;;-0.92;100.00;100811.78;5048582;28;20498;-73
2022/11/20 06:56:02;;;;;;;41.33;22.10;;;;;;;-0.97;100.00;100804.63;5055532;28;20045;-74
2022/11/20 06:58:31;;;;;;;43.17;22.60;;;;;;;-0.98;100.00;100800.28;5048579;28;20045;-75
2022/11/20 07:00:59;;;;;;;47.30;25.63;;;;;;;-1.05;100.00;100797.25;5058540;28;20056;-70
2022/11/20 07:03:26;;;;;;;46.28;25.50;;;;;;;-1.09;100.00;100795.47;5047712;28;20053;-76
2022/11/20 07:05:57;;;;;;;42.22;23.25;;;;;;;-1.13;100.00;100800.75;5055249;28;20450;-73
2022/11/20 07:08:24;;;;;;;49.22;28.92;;;;;;;-1.19;100.00;100804.72;5044025;28;20045;-74
2022/11/20 07:10:51;;;;;;;44.50;25.77;;;;;;;-1.18;100.00;100806.31;5051288;28;20055;-73
2022/11/20 07:13:17;;;;;;;44.60;24.38;;;;;;;-1.17;100.00;100809.84;5055891;28;20049;-74
2022/11/20 07:15:44;;;;;;;46.33;25.58;;;;;;;-1.12;100.00;100801.53;5048029;28;20052;-73
2022/11/20 07:18:11;;;;;;;46.50;25.30;;;;;;;-1.11;100.00;100819.44;5047774;28;20048;-73
2022/11/20 07:20:37;;;;;;;42.75;23.05;;;;;;;-1.09;100.00;100819.91;5048351;28;20142;-74
2022/11/20 07:23:04;;;;;;;42.50;22.33;;;;;;;-1.12;100.00;100821.34;5051449;28;20049;-73
2022/11/20 07:25:30;;;;;;;42.75;23.83;;;;;;;-1.14;100.00;100831.75;5047907;28;20063;-74
2022/11/20 07:28:00;;;;;;;49.83;28.58;;;;;;;-1.17;100.00;100823.41;5052741;28;20044;-75
2022/11/20 07:30:28;;;;;;;43.17;24.35;;;;;;;-1.27;100.00;100827.25;5046524;28;20171;-74
2022/11/20 07:32:55;;;;;;;42.65;22.92;;;;;;;-1.29;100.00;100823.22;5048403;28;20402;-74
2022/11/20 07:35:24;;;;;;;43.00;23.05;;;;;;;-1.26;100.00;100828.03;5054920;28;20174;-73
2022/11/20 07:37:50;;;;;;;42.42;22.88;;;;;;;-1.23;100.00;100827.41;5053001;28;20498;-74
2022/11/20 07:40:18;;;;;;;46.33;23.50;;;;;;;-1.24;100.00;100818.47;5052967;28;20053;-75
2022/11/20 07:42:49;;;;;;;41.05;22.35;;;;;;;-1.19;100.00;100825.66;5050445;28;20056;-74
2022/11/20 07:45:16;;;;;;;36.50;19.58;;;;;;;-1.19;100.00;100821.03;5047957;28;20051;-71
2022/11/20 07:47:43;;;;;;;45.08;20.75;;;;;;;-1.22;100.00;100818.16;5047147;28;20070;-72
2022/11/20 07:50:10;;;;;;;38.00;20.35;;;;;;;-1.23;100.00;100819.25;5044747;28;20044;-74
2022/11/20 07:52:36;;;;;;;42.75;21.25;;;;;;;-1.26;100.00;100823.41;5047296;28;20071;-74
2022/11/20 07:55:03;;;;;;;40.70;22.23;;;;;;;-1.29;100.00;100826.75;5054052;28;20068;-73
2022/11/20 07:57:30;;;;;;;42.50;23.08;;;;;;;-1.27;100.00;100829.16;5045137;28;20052;-74
2022/11/20 07:59:56;;;;;;;35.90;20.33;;;;;;;-1.23;100.00;100828.22;5049196;28;20045;-73
2022/11/20 08:02:23;;;;;;;42.22;22.38;;;;;;;-1.21;100.00;100827.91;5047285;28;20057;-74
2022/11/20 08:04:49;;;;;;;44.13;23.38;;;;;;;-1.21;100.00;100823.25;5050806;28;20051;-74
2022/11/20 08:07:16;;;;;;;39.15;21.23;;;;;;;-1.18;100.00;100819.13;5049034;28;20053;-74
2022/11/20 08:09:43;;;;;;;41.53;23.92;;;;;;;-1.18;100.00;100811.75;5046642;28;20075;-75
2022/11/20 08:15:04;;;;;;;40.20;22.77;;;;;;;-1.15;100.00;100813.06;5048971;28;20079;-72
2022/11/20 08:17:38;;;;;;;44.72;23.17;;;;;;;-1.17;100.00;100810.66;5059796;28;20063;-74
2022/11/20 08:20:05;;;;;;;42.70;22.50;;;;;;;-1.29;100.00;100812.38;5054763;28;20056;-74
2022/11/20 08:22:31;;;;;;;45.53;24.25;;;;;;;-1.22;100.00;100799.94;5056501;28;20045;-73
2022/11/20 08:24:58;;;;;;;46.55;23.67;;;;;;;-1.11;100.00;100806.66;5048829;28;20531;-76
2022/11/20 08:27:24;;;;;;;44.25;24.33;;;;;;;-1.03;100.00;100805.88;5054250;28;20056;-75
2022/11/20 08:29:51;;;;;;;44.20;24.35;;;;;;;-1.02;100.00;100810.19;5060290;28;20048;-73
2022/11/20 08:32:17;;;;;;;48.10;26.25;;;;;;;-0.93;100.00;100810.19;5056747;28;20051;-74
2022/11/20 08:34:44;;;;;;;53.33;27.60;;;;;;;-0.82;100.00;100795.97;5049446;28;20053;-73
2022/11/20 08:37:10;;;;;;;54.28;26.83;;;;;;;-0.71;100.00;100794.53;5049692;28;20060;-74
2022/11/20 08:39:37;;;;;;;56.15;28.58;;;;;;;-0.54;100.00;100799.19;5049239;28;20045;-75
2022/11/20 08:42:07;;;;;;;50.90;27.75;;;;;;;-0.43;100.00;100809.38;5048920;28;20059;-73
2022/11/20 08:44:33;;;;;;;54.47;28.83;;;;;;;-0.40;100.00;100811.44;5080932;28;20478;-75
2022/11/20 08:47:00;;;;;;;54.33;29.45;;;;;;;-0.37;100.00;100808.09;5052370;28;20045;-74
2022/11/20 08:49:27;;;;;;;59.10;31.85;;;;;;;-0.22;100.00;100812.22;5046047;28;20510;-75
2022/11/20 08:51:55;;;;;;;50.20;28.08;;;;;;;-0.14;100.00;100789.66;5055581;28;20057;-74
2022/11/20 08:54:21;;;;;;;52.85;27.80;;;;;;;-0.03;100.00;100791.69;5056573;28;20045;-74
2022/11/20 08:56:48;;;;;;;52.05;28.00;;;;;;;0.10;100.00;100800.00;5050039;28;20055;-74
2022/11/20 08:59:15;;;;;;;48.42;26.45;;;;;;;0.22;100.00;100806.34;5048374;28;20045;-74
2022/11/20 09:02:01;;;;;;;53.85;27.52;;;;;;;0.35;100.00;100808.03;5052080;28;20060;-74
2022/11/20 09:04:28;;;;;;;48.40;27.75;;;;;;;0.44;100.00;100805.28;5055078;28;20072;-77
2022/11/20 09:06:54;;;;;;;49.75;28.02;;;;;;;0.56;100.00;100802.66;5055907;28;20049;-72
2022/11/20 09:09:21;;;;;;;51.95;27.92;;;;;;;0.56;100.00;100803.47;5048186;28;20045;-73
2022/11/20 09:11:49;;;;;;;53.63;26.92;;;;;;;0.67;100.00;100801.16;5056177;28;20048;-75
2022/11/20 09:14:16;;;;;;;48.67;26.65;;;;;;;0.85;100.00;100803.47;5051699;28;20056;-74
2022/11/20 09:16:45;;;;;;;48.28;28.20;;;;;;;1.02;100.00;100805.25;5043014;28;20064;-75
2022/11/20 09:19:11;;;;;;;53.72;29.35;;;;;;;1.22;100.00;100804.47;5064886;28;20040;-72
2022/11/20 09:21:59;;;;;;;49.58;26.85;;;;;;;1.37;100.00;100792.94;5054272;28;20065;-71
2022/11/20 09:24:27;;;;;;;48.22;28.42;;;;;;;1.56;100.00;100787.81;5049909;28;20045;-74
2022/11/20 09:26:54;;;;;;;48.25;26.38;;;;;;;1.75;100.00;100793.53;5054872;28;20084;-74
2022/11/20 09:29:20;;;;;;;52.15;28.58;;;;;;;1.91;100.00;100789.03;5049904;28;20071;-73
2022/11/20 09:31:47;;;;;;;47.33;26.33;;;;;;;2.04;100.00;100794.22;5057795;28;20064;-74
2022/11/20 09:34:14;;;;;;;47.75;26.73;;;;;;;2.14;100.00;100787.50;5051895;28;20053;-74
2022/11/20 09:36:40;;;;;;;51.95;29.88;;;;;;;2.30;100.00;100781.03;5053840;28;20049;-74
2022/11/20 09:39:07;;;;;;;50.75;29.92;;;;;;;2.52;100.00;100783.31;5048334;28;20068;-74
2022/11/20 09:42:03;;;;;;;50.20;28.55;;;;;;;2.69;100.00;100790.47;5051271;28;20938;-74
2022/11/20 09:44:45;;;;;;;49.05;28.20;;;;;;;2.70;100.00;100781.94;5052809;28;20041;-74
2022/11/20 09:47:32;;;;;;;53.33;30.52;;;;;;;2.76;100.00;100776.25;5057715;28;20049;-74
2022/11/20 09:50:27;;;;;;;53.20;30.98;;;;;;;2.90;100.00;100782.16;5056047;28;20501;-72
2022/11/20 09:53:09;;;;;;;52.47;29.67;;;;;;;3.12;100.00;100771.50;5046941;28;20514;-75
2022/11/20 09:55:37;;;;;;;56.63;32.03;;;;;;;3.30;100.00;100766.56;5050902;28;20464;-74
2022/11/20 09:58:07;;;;;;;52.78;31.25;;;;;;;3.47;100.00;100766.25;5046507;28;20057;-74
2022/11/20 10:00:36;;;;;;;52.63;30.10;;;;;;;3.60;100.00;100767.78;5044642;28;20069;-71
2022/11/20 10:03:13;;;;;;;55.72;33.17;;;;;;;3.78;100.00;100769.06;5053851;28;20055;-74
2022/11/20 10:05:48;;;;;;;49.17;29.60;;;;;;;3.93;100.00;100766.34;5047180;28;20084;-74
2022/11/20 10:08:37;;;;;;;51.33;28.48;;;;;;;4.05;100.00;100762.75;5053115;28;20045;-75
2022/11/20 10:11:43;;;;;;;51.00;29.38;;;;;;;4.16;100.00;100753.66;5049469;28;20052;-75
2022/11/20 10:14:16;;;;;;;46.83;27.63;;;;;;;4.34;100.00;100754.88;5047437;28;20485;-74
2022/11/20 10:16:43;;;;;;;47.28;27.50;;;;;;;4.59;100.00;100759.00;5061502;28;20045;-75
2022/11/20 10:19:58;;;;;;;49.83;28.98;;;;;;;4.65;100.00;100762.25;5039658;28;20064;-72
2022/11/20 10:22:34;;;;;;;42.13;25.48;;;;;;;4.61;100.00;100759.44;5053779;28;20064;-72
2022/11/20 10:25:38;;;;;;;55.55;31.05;;;;;;;4.58;100.00;100748.38;5052262;28;20055;-73
2022/11/20 10:28:11;;;;;;;49.65;28.48;;;;;;;4.58;100.00;100742.91;5048536;28;20049;-73
2022/11/20 10:30:43;;;;;;;51.65;29.15;;;;;;;4.59;100.00;100739.03;5046553;28;20044;-74
2022/11/20 10:33:21;;;;;;;48.20;28.20;;;;;;;4.64;100.00;100744.22;5048335;28;20055;-74
2022/11/20 10:36:00;;;;;;;49.65;29.65;;;;;;;4.77;100.00;100737.47;5046556;28;20047;-72
2022/11/20 10:39:14;;;;;;;49.45;28.42;;;;;;;5.02;100.00;100731.38;5044551;28;20041;-72
2022/11/20 10:41:42;;;;;;;51.42;28.58;;;;;;;5.11;100.00;100731.19;5043212;28;20048;-74
2022/11/20 10:44:11;;;;;;;56.30;32.55;;;;;;;5.19;100.00;100725.47;5053772;28;20059;-74
2022/11/20 10:46:42;;;;;;;51.28;29.58;;;;;;;5.47;100.00;100726.03;5052529;28;20060;-75
2022/11/20 10:49:20;;;;;;;49.45;27.80;;;;;;;5.65;100.00;100725.56;5051959;28;20056;-74
2022/11/20 10:52:05;;;;;;;46.10;26.00;;;;;;;5.62;100.00;100720.81;5046249;28;20103;-74
2022/11/20 10:54:53;;;;;;;46.58;25.92;;;;;;;5.53;100.00;100717.53;5042389;28;20049;-72
2022/11/20 10:57:39;;;;;;;48.47;25.95;;;;;;;5.46;100.00;100728.38;5049185;28;20049;-74
2022/11/20 11:00:09;;;;;;;44.08;25.92;;;;;;;5.41;100.00;100721.22;5043969;28;20055;-73
2022/11/20 11:02:43;;;;;;;44.63;26.33;;;;;;;5.33;100.00;100713.97;5048788;28;20051;-74
2022/11/20 11:05:17;;;;;;;50.05;28.20;;;;;;;5.31;100.00;100711.59;5034514;28;20494;-73
2022/11/20 11:07:45;;;;;;;45.47;24.88;;;;;;;5.33;100.00;100709.31;5048740;28;20051;-75
2022/11/20 11:10:23;;;;;;;48.50;24.65;;;;;;;5.37;100.00;100696.44;5051471;28;20048;-73
2022/11/20 11:12:50;;;;;;;45.45;24.92;;;;;;;5.40;100.00;100692.97;5046510;28;20055;-73
2022/11/20 11:15:37;;;;;;;61.35;36.53;;;;;;;5.39;100.00;100679.63;5047613;28;20049;-73
2022/11/20 11:18:04;;;;;;;87.57;69.78;;;;;;;5.48;100.00;100693.91;5050281;28;20049;-72
2022/11/20 11:20:32;;;;;;;52.35;31.27;;;;;;;5.46;100.00;100687.97;5045494;28;20055;-73
2022/11/20 11:22:59;;;;;;;45.95;25.48;;;;;;;5.50;100.00;100685.31;5049375;28;20540;-73